createdAt,value
2022-10-22T00:01:06.079Z,99407.81
2022-10-22T00:03:33.972Z,99414.41
2022-10-22T00:06:01.913Z,99404.97
2022-10-22T00:08:30.272Z,99395.88
2022-10-22T00:10:58.601Z,99406.00
2022-10-22T00:13:28.209Z,99440.66
2022-10-22T00:15:56.240Z,99457.19
2022-10-22T00:18:24.181Z,99472.91
2022-10-22T00:20:52.097Z,99509.00
2022-10-22T00:23:19.993Z,99538.13
2022-10-22T00:25:48.909Z,99578.19
2022-10-22T00:28:16.780Z,99615.44
2022-10-22T00:30:46.255Z,99645.97
2022-10-22T00:33:14.460Z,99688.31
2022-10-22T00:35:42.379Z,99696.03
2022-10-22T00:38:10.284Z,99705.59
2022-10-22T00:40:38.193Z,99726.84
2022-10-22T00:43:06.162Z,99741.41
2022-10-22T00:45:34.118Z,99774.19
2022-10-22T00:48:06.718Z,99831.59
2022-10-22T00:50:36.977Z,99899.34
2022-10-22T00:53:07.601Z,99956.00
2022-10-22T00:55:36.201Z,100011.22
2022-10-22T00:58:05.041Z,100070.88
2022-10-22T01:00:33.151Z,100161.31
2022-10-22T01:03:02.936Z,100239.06
2022-10-22T01:05:34.123Z,100328.19
2022-10-22T01:08:01.973Z,100378.84
2022-10-22T01:10:47.259Z,100456.25
2022-10-22T01:13:27.471Z,100556.44
2022-10-22T01:16:00.408Z,100671.59
2022-10-22T01:18:39.259Z,100763.91
2022-10-22T01:21:20.987Z,100848.06
2022-10-22T01:24:29.071Z,100937.56
2022-10-22T01:27:16.405Z,101006.34
2022-10-22T01:29:49.494Z,101096.38
2022-10-22T01:32:20.168Z,101147.13
2022-10-22T01:34:58.524Z,101155.81
2022-10-22T01:37:30.564Z,101235.13
2022-10-22T01:40:00.246Z,101292.28
2022-10-22T01:42:28.308Z,101396.66
2022-10-22T01:44:57.466Z,101441.34
2022-10-22T01:47:41.507Z,101449.66
2022-10-22T01:50:38.996Z,101504.31
2022-10-22T01:53:18.802Z,101561.63
2022-10-22T01:55:57.584Z,101611.03
2022-10-22T01:58:38.453Z,101665.56
2022-10-22T02:01:14.337Z,101747.72
2022-10-22T02:03:50.432Z,101809.16
2022-10-22T02:06:21.209Z,101852.72
2022-10-22T02:08:51.232Z,101905.81
2022-10-22T02:11:19.138Z,101950.03
2022-10-22T02:13:49.534Z,102005.94
2022-10-22T02:16:23.916Z,102048.66
2022-10-22T02:18:56.560Z,102105.78
2022-10-22T02:21:24.643Z,102185.09
2022-10-22T02:23:52.513Z,102189.88
2022-10-22T02:26:24.616Z,102222.09
2022-10-22T02:28:59.809Z,102250.22
2022-10-22T02:31:32.414Z,102311.41
2022-10-22T02:34:07.894Z,102367.38
2022-10-22T02:36:36.293Z,102387.28
2022-10-22T02:39:05.284Z,102445.16
2022-10-22T02:41:33.678Z,102492.19
2022-10-22T02:44:02.738Z,102513.81
2022-10-22T02:46:32.227Z,102524.63
2022-10-22T02:49:00.136Z,102561.81
2022-10-22T02:51:28.258Z,102635.06
2022-10-22T02:53:56.082Z,102617.94
2022-10-22T02:56:24.021Z,102659.53
2022-10-22T02:58:51.859Z,102716.47
2022-10-22T03:01:19.813Z,102787.78
2022-10-22T03:03:49.121Z,102825.78
2022-10-22T03:06:18.042Z,102850.22
2022-10-22T03:08:46.068Z,102876.34
2022-10-22T03:11:13.912Z,102871.84
2022-10-22T03:13:42.064Z,102863.78
2022-10-22T03:16:09.965Z,102892.81
2022-10-22T03:18:37.968Z,102887.25
2022-10-22T03:21:11.571Z,102866.69
2022-10-22T03:23:41.434Z,102881.00
2022-10-22T03:26:11.299Z,102897.34
2022-10-22T03:28:41.391Z,102926.28
2022-10-22T03:31:09.263Z,102913.72
2022-10-22T03:33:37.088Z,102910.09
2022-10-22T03:36:05.323Z,102925.50
2022-10-22T03:38:36.230Z,102909.28
2022-10-22T03:41:04.296Z,102895.91
2022-10-22T03:43:32.177Z,102891.53
2022-10-22T03:46:00.006Z,102894.16
2022-10-22T03:48:28.016Z,102886.19
2022-10-22T03:50:55.807Z,102861.06
2022-10-22T03:53:23.548Z,102903.41
2022-10-22T03:55:52.764Z,102906.25
2022-10-22T03:58:20.548Z,102964.09
2022-10-22T04:00:48.418Z,102966.88
2022-10-22T04:03:16.565Z,102948.84
2022-10-22T04:05:44.541Z,103047.50
2022-10-22T04:08:12.485Z,103156.81
2022-10-22T04:10:40.363Z,103165.91
2022-10-22T04:13:09.631Z,103235.41
2022-10-22T04:15:37.525Z,103258.03
2022-10-22T04:18:05.531Z,103263.47
2022-10-22T04:20:33.422Z,103264.41
2022-10-22T04:23:01.343Z,103290.38
2022-10-22T04:25:29.394Z,103298.72
2022-10-22T04:27:57.239Z,103312.22
2022-10-22T04:30:26.623Z,103305.13
2022-10-22T04:32:54.627Z,103278.16
2022-10-22T04:35:22.656Z,103327.00
2022-10-22T04:37:50.562Z,103346.88
2022-10-22T04:40:18.514Z,103351.34
2022-10-22T04:42:46.416Z,103350.56
2022-10-22T04:45:15.647Z,103337.09
2022-10-22T04:47:45.265Z,103294.88
2022-10-22T04:50:13.140Z,103312.88
2022-10-22T04:52:41.123Z,103327.34
2022-10-22T04:55:09.787Z,103339.09
2022-10-22T04:57:37.811Z,103342.78
2022-10-22T05:00:06.914Z,103331.94
2022-10-22T05:02:34.815Z,103351.13
2022-10-22T05:05:04.976Z,103339.09
2022-10-22T05:07:33.008Z,103382.56
2022-10-22T05:10:02.285Z,103335.56
2022-10-22T05:12:30.981Z,103303.97
2022-10-22T05:14:58.875Z,103282.56
2022-10-22T05:17:27.256Z,103292.41
2022-10-22T05:19:55.292Z,103268.03
2022-10-22T05:22:24.556Z,103267.94
2022-10-22T05:24:52.477Z,103195.88
2022-10-22T05:27:20.426Z,103206.75
2022-10-22T05:29:48.346Z,103199.59
2022-10-22T05:32:16.393Z,103210.38
2022-10-22T05:34:44.306Z,103212.28
2022-10-22T05:37:12.236Z,103242.91
2022-10-22T05:39:41.672Z,103191.72
2022-10-22T05:42:09.572Z,103192.66
2022-10-22T05:44:38.977Z,103208.69
2022-10-22T05:47:07.108Z,103224.94
2022-10-22T05:49:39.656Z,103215.97
2022-10-22T05:52:07.677Z,103273.75
2022-10-22T05:54:35.585Z,103262.09
2022-10-22T05:57:05.185Z,103274.88
2022-10-22T05:59:33.297Z,103306.50
2022-10-22T06:02:01.590Z,103365.75
2022-10-22T06:04:29.630Z,103295.53
2022-10-22T06:06:57.582Z,103316.31
2022-10-22T06:09:29.493Z,103267.59
2022-10-22T06:11:58.646Z,103342.59
2022-10-22T06:14:28.883Z,103341.59
2022-10-22T06:17:02.427Z,103343.44
2022-10-22T06:19:32.750Z,103358.66
2022-10-22T06:22:02.727Z,103354.13
2022-10-22T06:24:30.861Z,103409.09
2022-10-22T06:26:58.739Z,103400.22
2022-10-22T06:29:28.228Z,103416.50
2022-10-22T06:31:56.133Z,103388.44
2022-10-22T06:34:24.091Z,103386.53
2022-10-22T06:36:58.165Z,103423.66
2022-10-22T06:39:41.618Z,103414.66
2022-10-22T06:42:11.168Z,103429.94
2022-10-22T06:44:42.220Z,103425.28
2022-10-22T06:47:10.144Z,103417.97
2022-10-22T06:49:38.148Z,103426.81
2022-10-22T06:52:06.443Z,103421.38
2022-10-22T06:54:34.574Z,103428.34
2022-10-22T06:57:02.489Z,103417.56
2022-10-22T06:59:30.660Z,103404.78
2022-10-22T07:01:59.973Z,103417.25
2022-10-22T07:04:28.035Z,103468.44
2022-10-22T07:06:56.464Z,103445.69
2022-10-22T07:09:24.474Z,103455.28
2022-10-22T07:11:52.427Z,103464.75
2022-10-22T07:14:20.325Z,103383.28
2022-10-22T07:16:48.323Z,103266.97
2022-10-22T07:19:17.610Z,103109.16
2022-10-22T07:21:46.078Z,102972.09
2022-10-22T07:24:14.017Z,102747.06
2022-10-22T07:26:41.868Z,102488.06
2022-10-22T07:29:10.093Z,102296.06
2022-10-22T07:31:37.911Z,102045.13
2022-10-22T07:34:05.702Z,101761.41
2022-10-22T07:36:34.986Z,101518.03
2022-10-22T07:39:03.255Z,101318.41
2022-10-22T07:41:31.725Z,101099.41
2022-10-22T07:44:00.271Z,100942.31
2022-10-22T07:46:28.544Z,100796.00
2022-10-22T07:48:56.644Z,100566.13
2022-10-22T07:51:24.578Z,100316.91
2022-10-22T07:53:53.868Z,100031.41
2022-10-22T07:56:21.870Z,99707.66
2022-10-22T07:58:50.171Z,99468.03
2022-10-22T08:01:18.527Z,99198.91
2022-10-22T08:03:46.602Z,98800.84
2022-10-22T08:06:15.761Z,98398.25
2022-10-22T08:08:45.747Z,98280.53
2022-10-22T08:11:15.447Z,98233.38
2022-10-22T08:13:45.598Z,98195.16
2022-10-22T08:16:14.880Z,98157.44
2022-10-22T08:18:43.150Z,98140.13
2022-10-22T08:21:11.424Z,98118.03
2022-10-22T08:23:40.010Z,98119.72
2022-10-22T08:26:08.080Z,98097.09
2022-10-22T08:28:37.934Z,98091.03
2022-10-22T08:31:07.475Z,98075.84
2022-10-22T08:33:35.800Z,98207.06
2022-10-22T08:36:03.816Z,98200.13
2022-10-22T08:38:32.426Z,98181.97
2022-10-22T08:41:08.822Z,98151.97
2022-10-22T08:44:08.706Z,98134.78
2022-10-22T08:46:53.149Z,98135.50
2022-10-22T08:49:24.101Z,98120.44
2022-10-22T08:51:52.486Z,98101.78
2022-10-22T08:54:38.950Z,98077.19
2022-10-22T08:57:23.837Z,98072.94
2022-10-22T08:59:59.234Z,98049.22
2022-10-22T09:02:41.614Z,98033.34
2022-10-22T09:05:24.621Z,98021.31
2022-10-22T09:07:53.120Z,98021.41
2022-10-22T09:10:26.526Z,98006.41
2022-10-22T09:12:54.546Z,97997.09
2022-10-22T09:15:23.713Z,97996.66
2022-10-22T09:18:03.862Z,97994.91
2022-10-22T09:20:39.767Z,98001.13
2022-10-22T09:23:24.568Z,97987.13
2022-10-22T09:25:53.324Z,97988.06
2022-10-22T09:28:21.476Z,97996.88
2022-10-22T09:30:51.026Z,97987.34
2022-10-22T09:33:23.986Z,97988.06
2022-10-22T09:35:55.597Z,97988.81
2022-10-22T09:38:27.201Z,97987.97
2022-10-22T09:40:57.189Z,97984.50
2022-10-22T09:43:25.914Z,97992.38
2022-10-22T09:46:00.093Z,97971.47
2022-10-22T09:48:32.066Z,97982.22
2022-10-22T09:51:05.675Z,97985.22
2022-10-22T09:53:40.513Z,97986.53
2022-10-22T09:56:11.028Z,97986.72
2022-10-22T09:58:46.569Z,97996.09
2022-10-22T10:01:20.563Z,98006.81
2022-10-22T10:03:49.989Z,98013.91
2022-10-22T10:06:20.574Z,98014.81
2022-10-22T10:08:49.347Z,98023.19
2022-10-22T10:11:29.070Z,98026.97
2022-10-22T10:14:08.745Z,98026.97
2022-10-22T10:16:52.327Z,98023.72
2022-10-22T10:19:44.203Z,98028.63
2022-10-22T10:22:23.779Z,98043.19
2022-10-22T10:25:13.662Z,98050.66
2022-10-22T10:27:45.028Z,98048.19
2022-10-22T10:30:17.182Z,98058.88
2022-10-22T10:32:59.587Z,98046.56
2022-10-22T10:35:31.396Z,98051.03
2022-10-22T10:38:17.103Z,98060.56
2022-10-22T10:40:51.423Z,98054.31
2022-10-22T10:43:26.141Z,98060.38
2022-10-22T10:46:03.318Z,98072.28
2022-10-22T10:48:48.079Z,98085.53
2022-10-22T10:51:30.407Z,98104.19
2022-10-22T10:54:16.502Z,98108.75
2022-10-22T10:56:48.409Z,98125.56
2022-10-22T10:59:20.765Z,98143.72
2022-10-22T11:02:00.652Z,98158.25
2022-10-22T11:04:50.919Z,98172.00
2022-10-22T11:07:34.211Z,98178.38
2022-10-22T11:10:10.375Z,98195.94
2022-10-22T11:12:43.529Z,98198.19
2022-10-22T11:15:23.809Z,98202.97
2022-10-22T11:17:54.119Z,98217.63
2022-10-22T11:20:27.880Z,98210.69
2022-10-22T11:23:18.846Z,98237.47
2022-10-22T11:25:50.493Z,98245.63
2022-10-22T11:28:25.682Z,98256.25
2022-10-22T11:30:59.362Z,98281.47
2022-10-22T11:33:33.895Z,98288.59
2022-10-22T11:36:04.981Z,98311.50
2022-10-22T11:38:35.766Z,98328.59
2022-10-22T11:41:07.785Z,98327.94
2022-10-22T11:43:52.522Z,98321.22
2022-10-22T11:46:40.821Z,98334.19
2022-10-22T11:49:23.253Z,98352.19
2022-10-22T11:51:53.419Z,98361.50
2022-10-22T11:54:42.313Z,98353.81
2022-10-22T11:57:25.614Z,98370.94
2022-10-22T11:59:57.852Z,98376.41
2022-10-22T12:02:44.866Z,98381.69
2022-10-22T12:05:43.976Z,98379.41
2022-10-22T12:08:27.641Z,98387.06
2022-10-22T12:11:07.312Z,98380.41
2022-10-22T12:13:58.544Z,98397.09
2022-10-22T12:16:44.094Z,98408.16
2022-10-22T12:19:19.580Z,98417.84
2022-10-22T12:21:51.040Z,98420.66
2022-10-22T12:24:23.047Z,98422.56
2022-10-22T12:26:52.675Z,98416.59
2022-10-22T12:29:23.959Z,98406.16
2022-10-22T12:31:51.939Z,98400.22
2022-10-22T12:34:24.326Z,98415.63
2022-10-22T12:36:53.635Z,98425.50
2022-10-22T12:39:26.284Z,98431.28
2022-10-22T12:41:55.253Z,98426.75
2022-10-22T12:44:23.155Z,98424.28
2022-10-22T12:46:54.612Z,98410.94
2022-10-22T12:49:34.050Z,98432.34
2022-10-22T12:52:04.173Z,98431.97
2022-10-22T12:54:35.508Z,98432.91
2022-10-22T12:57:03.590Z,98446.69
2022-10-22T12:59:35.832Z,98436.66
2022-10-22T13:02:11.302Z,98451.59
2022-10-22T13:04:39.834Z,98448.06
2022-10-22T13:07:21.283Z,98477.41
2022-10-22T13:10:00.999Z,98491.28
2022-10-22T13:12:36.340Z,98514.50
2022-10-22T13:15:20.346Z,98512.59
2022-10-22T13:17:49.526Z,98543.91
2022-10-22T13:20:20.982Z,98551.84
2022-10-22T13:22:58.386Z,98558.59
2022-10-22T13:25:29.532Z,98585.78
2022-10-22T13:27:59.569Z,98597.78
2022-10-22T13:30:29.780Z,98609.69
2022-10-22T13:33:00.102Z,98607.91
2022-10-22T13:35:32.042Z,98618.50
2022-10-22T13:38:00.748Z,98619.72
2022-10-22T13:40:30.385Z,98606.84
2022-10-22T13:42:58.290Z,98611.44
2022-10-22T13:45:26.213Z,98605.72
2022-10-22T13:47:57.033Z,98615.88
2022-10-22T13:50:25.061Z,98621.78
2022-10-22T13:52:55.462Z,98618.28
2022-10-22T13:55:26.687Z,98639.44
2022-10-22T13:57:57.364Z,98642.81
2022-10-22T14:00:25.876Z,98639.25
2022-10-22T14:02:58.181Z,98653.72
2022-10-22T14:05:26.214Z,98650.69
2022-10-22T14:07:54.579Z,98648.88
2022-10-22T14:10:24.088Z,98640.09
2022-10-22T14:12:53.554Z,98649.53
2022-10-22T14:15:25.060Z,98651.38
2022-10-22T14:17:57.334Z,98652.25
2022-10-22T14:20:28.855Z,98653.66
2022-10-22T14:22:57.658Z,98648.63
2022-10-22T14:25:27.090Z,98642.34
2022-10-22T14:27:56.524Z,98646.25
2022-10-22T14:30:29.639Z,98653.19
2022-10-22T14:33:01.911Z,98645.69
2022-10-22T14:35:30.226Z,98640.25
2022-10-22T14:37:58.829Z,98643.16
2022-10-22T14:40:26.935Z,98647.91
2022-10-22T14:42:55.117Z,98654.22
2022-10-22T14:45:26.883Z,98647.09
2022-10-22T14:48:00.403Z,98652.16
2022-10-22T14:50:28.599Z,98659.66
2022-10-22T14:52:59.799Z,98662.38
2022-10-22T14:55:29.067Z,98648.69
2022-10-22T14:57:58.005Z,98659.56
2022-10-22T15:00:27.557Z,98655.91
2022-10-22T15:03:06.813Z,98660.31
2022-10-22T15:05:36.312Z,98669.16
2022-10-22T15:08:04.813Z,98679.69
2022-10-22T15:10:32.949Z,98681.34
2022-10-22T15:13:01.027Z,98682.75
2022-10-22T15:15:34.083Z,98682.59
2022-10-22T15:18:05.914Z,98686.13
2022-10-22T15:20:36.394Z,98691.25
2022-10-22T15:23:04.690Z,98704.94
2022-10-22T15:25:33.148Z,98705.16
2022-10-22T15:28:09.219Z,98701.00
2022-10-22T15:30:39.253Z,98713.38
2022-10-22T15:33:07.287Z,98713.56
2022-10-22T15:35:35.413Z,98721.06
2022-10-22T15:38:09.201Z,98729.66
2022-10-22T15:40:38.685Z,98723.41
2022-10-22T15:43:06.713Z,98734.03
2022-10-22T15:45:34.741Z,98744.41
2022-10-22T15:48:04.228Z,98753.63
2022-10-22T15:50:32.677Z,98755.91
2022-10-22T15:53:00.579Z,98751.00
2022-10-22T15:55:30.721Z,98749.38
2022-10-22T15:58:01.831Z,98761.47
2022-10-22T16:00:31.618Z,98762.53
2022-10-22T16:02:59.853Z,98764.94
2022-10-22T16:05:29.616Z,98763.97
2022-10-22T16:07:57.643Z,98776.88
2022-10-22T16:10:25.518Z,98785.91
2022-10-22T16:12:54.608Z,98795.59
2022-10-22T16:15:22.517Z,98800.72
2022-10-22T16:17:53.722Z,98805.81
2022-10-22T16:20:23.670Z,98812.81
2022-10-22T16:22:53.097Z,98815.03
2022-10-22T16:25:20.988Z,98813.19
2022-10-22T16:27:50.792Z,98807.41
2022-10-22T16:30:19.492Z,98809.09
2022-10-22T16:32:47.509Z,98771.28
2022-10-22T16:35:15.457Z,98743.09
2022-10-22T16:37:43.693Z,98730.03
2022-10-22T16:40:14.187Z,98716.47
2022-10-22T16:42:44.057Z,98720.72
2022-10-22T16:45:12.180Z,98721.75
2022-10-22T16:47:42.877Z,98716.34
2022-10-22T16:50:11.589Z,98715.00
2022-10-22T16:52:39.865Z,98719.06
2022-10-22T16:55:08.684Z,98710.59
2022-10-22T16:57:38.127Z,98718.53
2022-10-22T17:00:07.602Z,98738.88
2022-10-22T17:02:37.312Z,98754.19
2022-10-22T17:05:06.186Z,98771.63
2022-10-22T17:07:34.399Z,98788.59
2022-10-22T17:10:03.686Z,98805.19
2022-10-22T17:12:35.196Z,98816.03
2022-10-22T17:15:06.075Z,98836.53
2022-10-22T17:17:34.321Z,98841.44
2022-10-22T17:20:02.330Z,98850.91
2022-10-22T17:22:30.514Z,98869.00
2022-10-22T17:25:10.614Z,98875.94
2022-10-22T17:27:39.427Z,98901.53
2022-10-22T17:30:13.301Z,98910.50
2022-10-22T17:32:41.305Z,98915.56
2022-10-22T17:35:10.491Z,98931.47
2022-10-22T17:37:45.935Z,98940.28
2022-10-22T17:40:17.866Z,98951.22
2022-10-22T17:42:46.694Z,98965.81
2022-10-22T17:45:20.905Z,98963.25
2022-10-22T17:47:51.036Z,98984.41
2022-10-22T17:50:30.311Z,98983.53
2022-10-22T17:53:02.680Z,98993.34
2022-10-22T17:55:32.775Z,99001.28
2022-10-22T17:58:01.441Z,99011.28
2022-10-22T18:00:33.440Z,99000.44
2022-10-22T18:03:12.261Z,99003.59
2022-10-22T18:05:42.909Z,99010.66
2022-10-22T18:08:12.565Z,99010.13
2022-10-22T18:10:43.053Z,99009.59
2022-10-22T18:13:16.559Z,99015.25
2022-10-22T18:15:58.280Z,99019.06
2022-10-22T18:18:26.583Z,99024.47
2022-10-22T18:20:57.148Z,99027.31
2022-10-22T18:23:29.437Z,99041.94
2022-10-22T18:26:08.602Z,99036.53
2022-10-22T18:28:39.458Z,99049.38
2022-10-22T18:31:12.184Z,99048.53
2022-10-22T18:33:45.576Z,99060.84
2022-10-22T18:36:28.057Z,99052.72
2022-10-22T18:39:01.608Z,99055.88
2022-10-22T18:41:35.942Z,99068.56
2022-10-22T18:44:06.987Z,99071.75
2022-10-22T18:46:38.440Z,99080.00
2022-10-22T18:49:08.149Z,99080.44
2022-10-22T18:51:38.463Z,99077.72
2022-10-22T18:54:25.814Z,99077.97
2022-10-22T18:56:56.283Z,99084.72
2022-10-22T18:59:32.762Z,99086.72
2022-10-22T19:02:06.338Z,99089.75
2022-10-22T19:04:38.354Z,99092.31
2022-10-22T19:09:43.704Z,99098.88
2022-10-22T19:12:15.854Z,99097.47
2022-10-22T19:14:43.908Z,99106.28
2022-10-22T19:17:13.774Z,99111.00
2022-10-22T19:19:45.901Z,99105.75
2022-10-22T19:22:14.144Z,99114.88
2022-10-22T19:24:46.449Z,99119.66
2022-10-22T19:27:14.783Z,99115.63
2022-10-22T19:29:45.811Z,99123.19
2022-10-22T19:32:20.102Z,99122.91
2022-10-22T19:34:51.804Z,99115.22
2022-10-22T19:37:20.228Z,99117.06
2022-10-22T19:39:56.951Z,99118.78
2022-10-22T19:42:32.802Z,99120.03
2022-10-22T19:45:10.982Z,99114.09
2022-10-22T19:47:44.788Z,99129.34
2022-10-22T19:50:13.138Z,99125.91
2022-10-22T19:52:41.876Z,99122.50
2022-10-22T19:55:12.559Z,99128.66
2022-10-22T19:58:11.672Z,99120.72
2022-10-22T20:00:46.942Z,99121.69
2022-10-22T20:03:24.016Z,99123.00
2022-10-22T20:05:54.304Z,99133.38
2022-10-22T20:08:24.696Z,99141.78
2022-10-22T20:10:57.046Z,99143.78
2022-10-22T20:13:25.206Z,99145.50
2022-10-22T20:15:53.741Z,99141.69
2022-10-22T20:18:26.068Z,99132.69
2022-10-22T20:20:54.645Z,99141.69
2022-10-22T20:23:24.674Z,99134.00
2022-10-22T20:25:54.872Z,99135.19
2022-10-22T20:28:23.836Z,99136.28
2022-10-22T20:30:55.739Z,99145.69
2022-10-22T20:33:27.881Z,99150.81
2022-10-22T20:36:01.773Z,99168.31
2022-10-22T20:38:32.672Z,99162.94
2022-10-22T20:41:11.327Z,99169.88
2022-10-22T20:43:39.391Z,99168.91
2022-10-22T20:46:07.522Z,99167.66
2022-10-22T20:48:39.282Z,99166.91
2022-10-22T20:51:07.655Z,99169.59
2022-10-22T20:53:35.674Z,99168.03
2022-10-22T20:56:04.215Z,99176.00
2022-10-22T20:58:33.010Z,99173.19
2022-10-22T21:01:09.389Z,99169.16
2022-10-22T21:03:39.125Z,99161.44
2022-10-22T21:06:07.382Z,99161.16
2022-10-22T21:08:35.319Z,99166.28
2022-10-22T21:11:03.301Z,99171.34
2022-10-22T21:13:33.016Z,99179.00
2022-10-22T21:16:01.050Z,99189.25
2022-10-22T21:18:28.974Z,99181.53
2022-10-22T21:20:58.289Z,99181.84
2022-10-22T21:23:26.404Z,99182.13
2022-10-22T21:25:55.606Z,99192.34
2022-10-22T21:28:23.758Z,99192.69
2022-10-22T21:30:51.728Z,99203.19
2022-10-22T21:33:19.797Z,99195.19
2022-10-22T21:35:52.523Z,99194.78
2022-10-22T21:38:23.314Z,99205.03
2022-10-22T21:40:51.957Z,99219.44
2022-10-22T21:43:19.909Z,99212.34
2022-10-22T21:45:47.823Z,99204.75
2022-10-22T21:48:18.259Z,99214.28
2022-10-22T21:50:46.476Z,99223.16
2022-10-22T21:53:14.359Z,99246.25
2022-10-22T21:55:43.729Z,99256.50
2022-10-22T21:58:11.727Z,99257.78
2022-10-22T22:00:39.748Z,99271.47
2022-10-22T22:03:08.627Z,99266.34
2022-10-22T22:05:37.028Z,99267.34
2022-10-22T22:08:05.217Z,99266.16
2022-10-22T22:10:33.345Z,99276.47
2022-10-22T22:13:02.707Z,99283.59
2022-10-22T22:15:31.616Z,99281.88
2022-10-22T22:17:59.564Z,99299.00
2022-10-22T22:20:27.526Z,99297.25
2022-10-22T22:22:55.390Z,99300.97
2022-10-22T22:25:23.367Z,99302.97
2022-10-22T22:27:51.306Z,99310.00
2022-10-22T22:30:20.622Z,99330.63
2022-10-22T22:32:48.493Z,99322.66
2022-10-22T22:35:16.581Z,99348.03
2022-10-22T22:37:44.615Z,99345.31
2022-10-22T22:40:13.512Z,99354.47
2022-10-22T22:42:41.428Z,99363.16
2022-10-22T22:45:09.775Z,99370.00
2022-10-22T22:47:40.412Z,99378.28
2022-10-22T22:50:09.297Z,99394.22
2022-10-22T22:52:37.211Z,99408.47
2022-10-22T22:55:06.045Z,99417.88
2022-10-22T22:57:34.023Z,99431.59
2022-10-22T23:00:01.934Z,99433.03
2022-10-22T23:02:29.789Z,99432.00
2022-10-22T23:04:59.098Z,99434.28
2022-10-22T23:07:29.438Z,99440.03
2022-10-22T23:09:57.349Z,99444.69
2022-10-22T23:12:25.237Z,99430.72
2022-10-22T23:14:53.439Z,99424.16
2022-10-22T23:17:21.390Z,99433.28
2022-10-22T23:19:49.278Z,99415.91
2022-10-22T23:22:18.525Z,99434.44
2022-10-22T23:24:46.384Z,99429.84
2022-10-22T23:27:14.314Z,99429.31
2022-10-22T23:29:42.243Z,99443.28
2022-10-22T23:32:15.259Z,99462.66
2022-10-22T23:34:43.357Z,99457.53
2022-10-22T23:37:12.996Z,99454.69
2022-10-22T23:39:42.278Z,99468.09
2022-10-22T23:42:10.263Z,99469.22
2022-10-22T23:44:38.168Z,99474.63
2022-10-22T23:47:06.198Z,99484.34
2022-10-22T23:49:34.170Z,99477.34
2022-10-22T23:52:02.141Z,99479.34
2022-10-22T23:54:30.072Z,99472.09
2022-10-22T23:56:59.354Z,99474.94
2022-10-22T23:59:27.410Z,99462.50
